createdAt,value
2022-08-08T00:01:06.665Z,23.99
2022-08-08T00:03:40.242Z,23.99
2022-08-08T00:06:28.231Z,23.85
2022-08-08T00:09:22.243Z,23.85
2022-08-08T00:12:07.519Z,23.88
2022-08-08T00:14:59.017Z,23.75
2022-08-08T00:18:02.140Z,23.81
2022-08-08T00:20:36.251Z,23.67
2022-08-08T00:23:10.679Z,23.66
2022-08-08T00:25:46.640Z,23.70
2022-08-08T00:28:34.295Z,23.68
2022-08-08T00:32:28.156Z,23.51
2022-08-08T00:34:41.386Z,23.56
2022-08-08T00:37:48.057Z,23.43
2022-08-08T00:41:06.326Z,23.58
2022-08-08T00:43:40.586Z,23.68
2022-08-08T00:46:18.097Z,23.87
2022-08-08T00:49:01.176Z,23.89
2022-08-08T00:51:47.889Z,23.64
2022-08-08T00:54:29.005Z,23.52
2022-08-08T00:57:36.263Z,23.62
2022-08-08T01:00:07.400Z,23.76
2022-08-08T01:04:01.854Z,23.82
2022-08-08T01:06:02.645Z,23.89
2022-08-08T01:08:51.857Z,23.69
2022-08-08T01:11:27.951Z,23.74
2022-08-08T01:14:53.662Z,23.69
2022-08-08T01:17:20.292Z,23.77
2022-08-08T01:20:07.431Z,23.95
2022-08-08T01:22:55.695Z,24.17
2022-08-08T01:25:40.949Z,23.74
2022-08-08T01:28:15.943Z,23.66
2022-08-08T01:31:01.375Z,23.90
2022-08-08T01:34:00.147Z,23.82
2022-08-08T01:36:38.832Z,24.00
2022-08-08T01:39:18.492Z,24.11
2022-08-08T01:42:01.834Z,24.12
2022-08-08T01:44:53.420Z,24.04
2022-08-08T01:48:14.006Z,23.86
2022-08-08T01:50:53.742Z,23.96
2022-08-08T01:55:15.539Z,23.71
2022-08-08T01:56:34.120Z,23.60
2022-08-08T01:59:05.476Z,23.56
2022-08-08T02:02:02.971Z,23.70
2022-08-08T02:04:33.868Z,23.68
2022-08-08T02:07:06.676Z,23.67
2022-08-08T02:10:03.630Z,23.69
2022-08-08T02:12:33.242Z,23.52
2022-08-08T02:15:11.404Z,23.25
2022-08-08T02:17:44.367Z,23.42
2022-08-08T02:21:02.964Z,23.64
2022-08-08T02:23:16.568Z,23.66
2022-08-08T02:25:49.436Z,23.65
2022-08-08T02:28:20.403Z,23.87
2022-08-08T02:30:58.224Z,23.97
2022-08-08T02:34:00.294Z,23.84
2022-08-08T02:36:47.637Z,23.53
2022-08-08T02:39:42.130Z,23.59
2022-08-08T02:42:38.132Z,23.55
2022-08-08T02:45:29.218Z,23.49
2022-08-08T02:47:59.323Z,23.44
2022-08-08T02:50:52.825Z,23.37
2022-08-08T02:53:43.241Z,23.52
2022-08-08T02:56:27.194Z,23.61
2022-08-08T02:59:25.731Z,23.54
2022-08-08T03:02:20.270Z,23.39
2022-08-08T03:05:03.187Z,23.27
2022-08-08T03:08:02.290Z,23.24
2022-08-08T03:10:33.020Z,23.67
2022-08-08T03:15:58.741Z,23.77
2022-08-08T03:16:35.264Z,23.82
2022-08-08T03:19:23.888Z,23.53
2022-08-08T03:21:58.789Z,23.66
2022-08-08T03:24:28.839Z,23.61
2022-08-08T03:27:04.002Z,23.79
2022-08-08T03:29:56.562Z,23.65
2022-08-08T03:32:47.305Z,23.67
2022-08-08T03:35:22.073Z,23.67
2022-08-08T03:37:59.954Z,23.63
2022-08-08T03:40:37.445Z,23.59
2022-08-08T03:43:16.388Z,23.58
2022-08-08T03:46:07.145Z,23.72
2022-08-08T03:49:56.410Z,23.69
2022-08-08T03:51:40.240Z,23.29
2022-08-08T03:54:15.677Z,23.25
2022-08-08T03:58:09.446Z,23.33
2022-08-08T04:00:02.784Z,23.59
2022-08-08T04:02:51.528Z,23.56
2022-08-08T04:05:27.419Z,23.38
2022-08-08T04:07:58.294Z,23.07
2022-08-08T04:10:32.084Z,23.23
2022-08-08T04:13:03.910Z,23.49
2022-08-08T04:16:03.510Z,23.42
2022-08-08T04:18:44.613Z,23.50
2022-08-08T04:21:22.811Z,23.47
2022-08-08T04:24:05.679Z,23.59
2022-08-08T04:26:56.728Z,23.41
2022-08-08T04:29:24.278Z,23.67
2022-08-08T04:31:59.009Z,23.14
2022-08-08T04:34:31.827Z,23.26
2022-08-08T04:37:01.022Z,23.55
2022-08-08T04:40:03.843Z,23.70
2022-08-08T04:42:21.292Z,23.94
2022-08-08T04:44:51.349Z,23.91
2022-08-08T04:47:24.444Z,23.91
2022-08-08T04:50:00.696Z,24.07
2022-08-08T04:52:35.522Z,23.95
2022-08-08T04:55:06.444Z,24.08
2022-08-08T04:57:35.565Z,24.30
2022-08-08T05:00:05.165Z,24.41
2022-08-08T05:02:34.451Z,24.62
2022-08-08T05:05:06.487Z,24.52
2022-08-08T05:07:46.240Z,24.31
2022-08-08T05:10:15.221Z,24.61
2022-08-08T05:13:00.249Z,24.61
2022-08-08T05:16:53.641Z,24.55
2022-08-08T05:18:21.150Z,24.42
2022-08-08T05:20:52.485Z,24.30
2022-08-08T05:23:24.108Z,24.14
2022-08-08T05:26:00.234Z,24.02
2022-08-08T05:28:56.870Z,24.09
2022-08-08T05:32:03.200Z,24.28
2022-08-08T05:34:14.451Z,24.39
2022-08-08T05:36:43.704Z,24.39
2022-08-08T05:39:13.069Z,24.43
2022-08-08T05:41:55.408Z,24.19
2022-08-08T05:44:31.000Z,24.28
2022-08-08T05:47:02.924Z,24.62
2022-08-08T05:49:31.528Z,24.92
2022-08-08T05:52:05.407Z,24.90
2022-08-08T05:54:50.247Z,24.89
2022-08-08T05:58:05.661Z,24.95
2022-08-08T06:00:23.386Z,24.90
2022-08-08T06:05:51.824Z,25.16
2022-08-08T06:08:33.318Z,24.78
2022-08-08T06:11:13.447Z,24.45
2022-08-08T06:13:51.698Z,24.52
2022-08-08T06:16:27.254Z,24.69
2022-08-08T06:18:57.556Z,25.03
2022-08-08T06:21:49.039Z,25.10
2022-08-08T06:24:22.879Z,25.21
2022-08-08T06:27:09.235Z,25.20
2022-08-08T06:32:27.104Z,25.65
2022-08-08T06:36:04.137Z,25.64
2022-08-08T06:37:55.040Z,25.81
2022-08-08T06:40:26.655Z,25.34
2022-08-08T06:42:56.545Z,25.03
2022-08-08T06:45:26.846Z,24.92
2022-08-08T06:48:00.833Z,24.96
2022-08-08T06:50:39.870Z,25.12
2022-08-08T06:53:17.624Z,25.27
2022-08-08T06:56:02.397Z,25.47
2022-08-08T06:58:34.746Z,25.49
2022-08-08T07:02:17.618Z,25.65
2022-08-08T07:04:37.248Z,25.74
2022-08-08T07:07:01.549Z,25.92
2022-08-08T07:10:00.187Z,26.17
2022-08-08T07:12:40.392Z,26.27
2022-08-08T07:15:31.798Z,26.11
2022-08-08T07:18:35.447Z,26.08
2022-08-08T07:21:02.131Z,26.27
2022-08-08T07:24:01.198Z,26.19
2022-08-08T07:26:35.949Z,26.36
2022-08-08T07:29:20.247Z,26.21
2022-08-08T07:31:58.636Z,26.15
2022-08-08T07:34:35.085Z,26.29
2022-08-08T07:37:11.983Z,26.50
2022-08-08T07:39:56.204Z,26.76
2022-08-08T07:42:33.154Z,26.80
2022-08-08T07:45:07.539Z,27.08
2022-08-08T07:50:13.100Z,27.09
2022-08-08T07:52:51.788Z,27.03
2022-08-08T07:55:28.714Z,26.86
2022-08-08T07:58:22.425Z,26.62
2022-08-08T08:01:12.484Z,26.77
2022-08-08T08:03:47.439Z,27.47
2022-08-08T08:06:18.493Z,27.59
2022-08-08T08:08:53.060Z,27.59
2022-08-08T08:11:34.022Z,27.70
2022-08-08T08:14:30.640Z,27.69
2022-08-08T08:17:03.835Z,27.98
2022-08-08T08:19:45.414Z,28.22
2022-08-08T08:22:31.474Z,28.48
2022-08-08T08:25:07.461Z,28.73
2022-08-08T08:27:36.519Z,29.02
2022-08-08T08:30:05.281Z,29.39
2022-08-08T08:32:40.993Z,29.46
2022-08-08T08:35:29.466Z,29.52
2022-08-08T08:38:17.356Z,29.43
2022-08-08T08:40:48.644Z,29.26
2022-08-08T08:43:20.363Z,28.81
2022-08-08T08:45:57.420Z,29.26
2022-08-08T08:51:06.262Z,29.31
2022-08-08T08:53:56.375Z,29.14
2022-08-08T08:56:37.500Z,29.17
2022-08-08T08:59:15.374Z,29.22
2022-08-08T09:01:48.288Z,29.59
2022-08-08T09:04:30.929Z,29.53
2022-08-08T09:12:15.149Z,28.98
2022-08-08T09:14:47.651Z,28.90
2022-08-08T09:17:19.249Z,28.87
2022-08-08T09:21:58.840Z,29.24
2022-08-08T09:22:47.470Z,29.08
2022-08-08T09:25:16.226Z,28.86
2022-08-08T09:27:57.263Z,28.84
2022-08-08T09:30:28.233Z,29.00
2022-08-08T09:33:12.881Z,28.84
2022-08-08T09:35:54.559Z,28.53
2022-08-08T09:38:56.239Z,28.60
2022-08-08T09:41:54.763Z,28.84
2022-08-08T09:44:41.273Z,28.84
2022-08-08T09:47:25.672Z,29.14
2022-08-08T09:50:04.807Z,29.09
2022-08-08T09:52:53.868Z,29.05
2022-08-08T09:56:03.460Z,28.97
2022-08-08T09:58:27.593Z,28.65
2022-08-08T10:01:02.871Z,28.45
2022-08-08T10:03:45.472Z,28.40
2022-08-08T10:06:18.635Z,28.84
2022-08-08T10:08:47.813Z,28.68
2022-08-08T10:12:26.624Z,28.52
2022-08-08T10:16:42.455Z,28.42
2022-08-08T10:19:23.087Z,28.22
2022-08-08T10:21:53.777Z,28.49
2022-08-08T10:24:28.511Z,28.54
2022-08-08T10:27:06.600Z,28.69
2022-08-08T10:29:58.668Z,28.28
2022-08-08T10:32:40.478Z,28.18
2022-08-08T10:36:08.502Z,28.75
2022-08-08T10:38:19.995Z,28.80
2022-08-08T10:40:51.541Z,28.70
2022-08-08T10:43:22.208Z,28.62
2022-08-08T10:45:57.175Z,28.80
2022-08-08T10:48:37.585Z,28.87
2022-08-08T10:51:26.628Z,28.55
2022-08-08T10:54:02.672Z,28.57
2022-08-08T10:56:36.971Z,28.54
2022-08-08T10:59:18.509Z,28.70
2022-08-08T11:01:49.414Z,28.48
2022-08-08T11:04:29.746Z,28.70
2022-08-08T11:09:50.705Z,28.87
2022-08-08T11:12:28.619Z,28.11
2022-08-08T11:15:04.630Z,28.03
2022-08-08T11:17:59.765Z,28.38
2022-08-08T11:20:28.044Z,28.28
2022-08-08T11:23:00.664Z,28.52
2022-08-08T11:25:52.006Z,28.60
2022-08-08T11:28:29.495Z,28.57
2022-08-08T11:31:04.133Z,28.28
2022-08-08T11:33:52.943Z,28.31
2022-08-08T11:36:29.814Z,28.35
2022-08-08T11:38:59.682Z,28.79
2022-08-08T11:41:38.107Z,29.03
2022-08-08T11:44:07.120Z,28.90
2022-08-08T11:46:37.649Z,28.36
2022-08-08T11:49:17.141Z,28.01
2022-08-08T11:51:49.811Z,27.98
2022-08-08T11:54:42.292Z,27.90
2022-08-08T11:57:23.979Z,27.81
2022-08-08T12:00:05.785Z,27.41
2022-08-08T12:02:55.660Z,27.78
2022-08-08T12:05:33.722Z,27.98
2022-08-08T12:08:02.116Z,27.91
2022-08-08T12:10:36.312Z,28.01
2022-08-08T12:13:09.744Z,27.84
2022-08-08T12:18:24.440Z,28.02
2022-08-08T12:20:58.690Z,27.92
2022-08-08T12:23:40.307Z,27.31
2022-08-08T12:26:28.409Z,27.09
2022-08-08T12:29:25.812Z,26.73
2022-08-08T12:32:13.606Z,27.06
2022-08-08T12:35:04.395Z,26.74
2022-08-08T12:38:00.951Z,27.07
2022-08-08T12:40:54.239Z,27.21
2022-08-08T12:43:31.976Z,27.12
2022-08-08T12:46:19.292Z,27.44
2022-08-08T12:49:22.200Z,27.27
2022-08-08T12:51:59.310Z,27.27
2022-08-08T12:54:37.335Z,27.44
2022-08-08T12:57:13.219Z,27.16
2022-08-08T13:02:37.941Z,26.95
2022-08-08T13:05:27.149Z,27.01
2022-08-08T13:08:20.681Z,26.98
2022-08-08T13:11:02.585Z,26.99
2022-08-08T13:13:38.804Z,26.85
2022-08-08T13:16:26.408Z,27.28
2022-08-08T13:19:11.805Z,27.03
2022-08-08T13:21:58.312Z,27.19
2022-08-08T13:24:40.879Z,27.11
2022-08-08T13:27:35.621Z,27.03
2022-08-08T13:30:20.889Z,27.25
2022-08-08T13:33:00.527Z,27.55
2022-08-08T13:35:41.092Z,27.42
2022-08-08T13:38:28.215Z,27.46
2022-08-08T13:40:58.547Z,27.54
2022-08-08T13:46:28.386Z,27.51
2022-08-08T13:49:12.241Z,27.62
2022-08-08T13:51:59.801Z,27.61
2022-08-08T13:57:14.614Z,27.95
2022-08-08T13:59:49.216Z,27.30
2022-08-08T14:02:30.973Z,27.52
2022-08-08T14:05:22.365Z,28.10
2022-08-08T14:08:01.676Z,28.12
2022-08-08T14:10:42.010Z,27.60
2022-08-08T14:13:33.551Z,27.80
2022-08-08T14:16:16.276Z,27.81
2022-08-08T14:18:51.872Z,27.69
2022-08-08T14:21:22.364Z,27.59
2022-08-08T14:24:07.252Z,27.59
2022-08-08T14:26:49.803Z,27.53
2022-08-08T14:29:29.931Z,27.62
2022-08-08T14:32:08.862Z,27.56
2022-08-08T14:34:39.393Z,27.12
2022-08-08T14:37:19.771Z,27.53
2022-08-08T14:39:53.782Z,27.66
2022-08-08T14:42:31.793Z,27.46
2022-08-08T14:45:05.612Z,27.54
2022-08-08T14:47:53.367Z,27.28
2022-08-08T14:50:37.922Z,27.26
2022-08-08T14:53:13.453Z,27.41
2022-08-08T14:55:45.084Z,27.06
2022-08-08T14:58:16.977Z,26.98
2022-08-08T15:00:54.501Z,26.94
2022-08-08T15:03:25.904Z,26.95
2022-08-08T15:05:58.807Z,26.59
2022-08-08T15:08:35.569Z,26.33
2022-08-08T15:11:10.473Z,26.58
2022-08-08T15:14:00.344Z,26.32
2022-08-08T15:16:34.399Z,26.19
2022-08-08T15:19:15.722Z,26.46
2022-08-08T15:21:45.345Z,26.39
2022-08-08T15:24:17.106Z,26.51
2022-08-08T15:27:04.104Z,26.19
2022-08-08T15:29:59.557Z,26.41
2022-08-08T15:32:34.840Z,26.74
2022-08-08T15:35:09.055Z,26.84
2022-08-08T15:37:37.197Z,26.60
2022-08-08T15:40:15.132Z,26.74
2022-08-08T15:42:45.027Z,26.37
2022-08-08T15:45:16.502Z,26.90
2022-08-08T15:48:05.558Z,26.86
2022-08-08T15:50:38.614Z,26.63
2022-08-08T15:53:08.964Z,26.61
2022-08-08T15:55:42.650Z,26.62
2022-08-08T15:58:11.166Z,26.50
2022-08-08T16:00:50.281Z,26.23
2022-08-08T16:06:01.812Z,26.15
2022-08-08T16:08:35.554Z,26.03
2022-08-08T16:13:10.988Z,26.28
2022-08-08T16:13:53.368Z,26.02
2022-08-08T16:16:22.185Z,26.20
2022-08-08T16:18:56.772Z,26.24
2022-08-08T16:21:31.526Z,26.37
2022-08-08T16:24:10.019Z,26.25
2022-08-08T16:26:39.812Z,26.51
2022-08-08T16:29:16.336Z,26.48
2022-08-08T16:31:49.230Z,26.50
2022-08-08T16:34:19.054Z,26.34
2022-08-08T16:36:50.514Z,26.22
2022-08-08T16:39:59.651Z,26.15
2022-08-08T16:42:13.872Z,26.02
2022-08-08T16:44:54.488Z,26.01
2022-08-08T16:47:40.688Z,26.29
2022-08-08T16:50:15.612Z,25.94
2022-08-08T16:55:00.529Z,26.09
2022-08-08T16:55:55.435Z,26.16
2022-08-08T16:58:32.527Z,26.00
2022-08-08T17:01:05.817Z,25.57
2022-08-08T17:04:00.819Z,25.51
2022-08-08T17:06:36.442Z,25.59
2022-08-08T17:09:14.760Z,25.81
2022-08-08T17:11:48.485Z,25.94
2022-08-08T17:14:34.247Z,25.42
2022-08-08T17:17:06.582Z,25.71
2022-08-08T17:19:54.478Z,25.41
2022-08-08T17:22:39.084Z,25.52
2022-08-08T17:25:11.703Z,25.65
2022-08-08T17:27:47.897Z,25.71
2022-08-08T17:30:27.160Z,25.38
2022-08-08T17:34:49.420Z,25.37
2022-08-08T17:36:10.145Z,25.43
2022-08-08T17:38:48.630Z,25.13
2022-08-08T17:41:23.042Z,25.16
2022-08-08T17:44:02.380Z,24.66
2022-08-08T17:46:38.582Z,24.82
2022-08-08T17:51:43.628Z,24.77
2022-08-08T17:54:21.990Z,24.80
2022-08-08T17:56:55.640Z,24.92
2022-08-08T18:02:21.283Z,24.50
2022-08-08T18:04:58.892Z,24.23
2022-08-08T18:08:04.312Z,24.20
2022-08-08T18:10:37.643Z,24.01
2022-08-08T18:13:07.584Z,23.68
2022-08-08T18:15:45.761Z,24.07
2022-08-08T18:18:39.282Z,23.87
2022-08-08T18:21:25.238Z,23.70
2022-08-08T18:24:19.274Z,23.74
2022-08-08T18:26:58.055Z,23.49
2022-08-08T18:29:36.084Z,23.17
2022-08-08T18:32:06.589Z,23.21
2022-08-08T18:34:43.180Z,23.32
2022-08-08T18:37:17.673Z,23.18
2022-08-08T18:40:06.718Z,23.59
2022-08-08T18:42:50.222Z,22.91
2022-08-08T18:45:44.769Z,22.97
2022-08-08T18:48:15.885Z,23.14
2022-08-08T18:50:58.516Z,23.20
2022-08-08T18:56:22.821Z,23.32
2022-08-08T18:58:55.879Z,23.24
2022-08-08T19:02:24.896Z,23.10
2022-08-08T19:04:27.810Z,22.97
2022-08-08T19:07:04.698Z,22.89
2022-08-08T19:09:48.820Z,22.90
2022-08-08T19:12:26.714Z,23.31
2022-08-08T19:14:57.750Z,23.21
2022-08-08T19:22:57.046Z,23.27
2022-08-08T19:26:02.351Z,23.05
2022-08-08T19:28:26.895Z,23.05
2022-08-08T19:31:07.390Z,23.15
2022-08-08T19:36:28.270Z,23.25
2022-08-08T19:38:58.267Z,22.85
2022-08-08T19:41:38.676Z,22.97
2022-08-08T19:44:12.551Z,22.61
2022-08-08T19:46:55.834Z,22.90
2022-08-08T19:49:27.939Z,22.50
2022-08-08T19:52:13.850Z,22.80
2022-08-08T19:55:12.891Z,22.75
2022-08-08T19:57:47.384Z,22.80
2022-08-08T20:00:32.649Z,22.79
2022-08-08T20:03:14.649Z,22.55
2022-08-08T20:08:47.644Z,22.52
2022-08-08T20:11:24.876Z,22.77
2022-08-08T20:14:32.728Z,22.93
2022-08-08T20:16:55.668Z,23.02
2022-08-08T20:19:42.335Z,22.90
2022-08-08T20:22:21.032Z,22.63
2022-08-08T20:25:00.380Z,22.61
2022-08-08T20:27:43.837Z,22.61
2022-08-08T20:30:52.801Z,22.82
2022-08-08T20:35:59.583Z,22.90
2022-08-08T20:38:33.544Z,22.59
2022-08-08T20:41:17.120Z,22.65
2022-08-08T20:43:49.417Z,23.06
2022-08-08T20:46:25.552Z,23.09
2022-08-08T20:48:58.204Z,22.99
2022-08-08T20:51:32.634Z,22.92
2022-08-08T20:54:09.288Z,23.03
2022-08-08T20:57:16.379Z,23.11
2022-08-08T20:59:41.304Z,23.41
2022-08-08T21:02:14.615Z,23.17
2022-08-08T21:05:04.577Z,23.09
2022-08-08T21:07:47.364Z,23.27
2022-08-08T21:10:28.273Z,23.25
2022-08-08T21:12:59.907Z,22.97
2022-08-08T21:16:05.295Z,23.35
2022-08-08T21:18:17.067Z,23.30
2022-08-08T21:20:50.874Z,23.29
2022-08-08T21:23:19.004Z,23.40
2022-08-08T21:25:55.021Z,23.25
2022-08-08T21:28:36.060Z,23.47
2022-08-08T21:31:22.617Z,23.58
2022-08-08T21:33:52.599Z,23.03
2022-08-08T21:36:21.698Z,23.31
2022-08-08T21:39:04.172Z,23.14
2022-08-08T21:41:38.713Z,23.59
2022-08-08T21:44:21.215Z,23.28
2022-08-08T21:48:05.752Z,23.04
2022-08-08T21:49:44.883Z,23.16
2022-08-08T21:54:35.370Z,23.21
2022-08-08T21:55:04.597Z,23.27
2022-08-08T21:58:05.215Z,23.36
2022-08-08T22:00:40.734Z,23.49
2022-08-08T22:03:10.953Z,23.19
2022-08-08T22:05:43.805Z,23.31
2022-08-08T22:08:13.134Z,23.22
2022-08-08T22:10:42.308Z,23.53
2022-08-08T22:13:18.867Z,23.56
2022-08-08T22:16:00.473Z,23.45
2022-08-08T22:18:30.087Z,23.53
2022-08-08T22:21:13.829Z,23.76
2022-08-08T22:23:50.940Z,23.67
2022-08-08T22:26:29.275Z,23.53
2022-08-08T22:29:14.593Z,23.67
2022-08-08T22:32:01.430Z,23.64
2022-08-08T22:34:39.827Z,23.50
2022-08-08T22:37:14.753Z,23.16
2022-08-08T22:40:00.433Z,23.27
2022-08-08T22:42:31.658Z,22.93
2022-08-08T22:45:05.417Z,22.97
2022-08-08T22:47:41.420Z,22.77
2022-08-08T22:50:25.779Z,22.68
2022-08-08T22:54:27.515Z,22.52
2022-08-08T22:55:58.415Z,22.54
2022-08-08T22:58:33.166Z,22.24
2022-08-08T23:01:26.511Z,22.16
2022-08-08T23:03:55.742Z,22.40
2022-08-08T23:06:27.183Z,22.08
2022-08-08T23:08:58.520Z,22.06
2022-08-08T23:12:17.806Z,22.20
2022-08-08T23:14:16.438Z,22.11
2022-08-08T23:16:53.294Z,21.95
2022-08-08T23:19:27.064Z,21.99
2022-08-08T23:21:54.609Z,21.83
2022-08-08T23:24:24.078Z,21.71
2022-08-08T23:26:56.209Z,21.34
2022-08-08T23:29:25.654Z,21.17
2022-08-08T23:31:53.352Z,21.08
2022-08-08T23:34:22.286Z,21.25
2022-08-08T23:36:56.901Z,21.41
2022-08-08T23:39:26.395Z,21.45
2022-08-08T23:42:03.173Z,21.15
2022-08-08T23:44:31.841Z,21.41
2022-08-08T23:49:02.530Z,21.44
2022-08-08T23:49:49.478Z,21.43
2022-08-08T23:52:29.544Z,21.22
2022-08-08T23:55:07.458Z,21.25
2022-08-08T23:57:52.349Z,21.31
